This is the latest recevied weather packets stored in our database for station/object IT9DBI-3. If no packets are shown the sender has not sent any weather packets the latest 10 day(s).
| Time | Temp. | Humidity | Pressure | Rain* | Wind** | Luminosity | Snow |
|---|---|---|---|---|---|---|---|
| 1777586872 | 15.56° C | 98% | 1016.5 hPa | - | - | - | - |
| 1777585671 | 15.56° C | 91% | 1016.4 hPa | - | - | - | - |
| 1777584468 | 16.67° C | 79% | 1016.1 hPa | - | - | - | - |
| 1777583266 | 16.11° C | 89% | 1016.2 hPa | - | - | - | - |
| 1777582062 | 15.56° C | 100% | 1016.1 hPa | - | - | - | - |
| 1777580860 | 16.11° C | 100% | 1016.3 hPa | - | - | - | - |
| 1777579659 | 17.22° C | 99% | 1016.3 hPa | - | - | - | - |
| 1777578458 | 17.22° C | 90% | 1016.1 hPa | - | - | - | - |
| 1777577256 | 17.78° C | 81% | 1016.1 hPa | - | - | - | - |
| 1777576055 | 17.78° C | 66% | 1015.8 hPa | - | - | - | - |
| 1777574853 | 17.78° C | 66% | 1015.5 hPa | - | - | - | - |
| 1777573652 | 17.78° C | 66% | 1015.4 hPa | - | - | - | - |
| 1777572451 | 17.78° C | 68% | 1015.1 hPa | - | - | - | - |
| 1777571249 | 18.33° C | 68% | 1015 hPa | - | - | - | - |
| 1777570048 | 18.89° C | 66% | 1014.7 hPa | - | - | - | - |
| 1777568846 | 18.89° C | 65% | 1015 hPa | - | - | - | - |
| 1777567645 | 19.44° C | 65% | 1014.7 hPa | - | - | - | - |
| 1777566443 | 21.67° C | 48% | 1014.7 hPa | - | - | - | - |
| 1777565242 | 23.89° C | 44% | 1014.3 hPa | - | - | - | - |
| 1777563798 | 21.11° C | 52% | 1014.8 hPa | - | - | - | - |
| 1777562597 | 21.67° C | 48% | 1014.7 hPa | - | - | - | - |
| 1777561396 | 22.22° C | 46% | 1014.6 hPa | - | - | - | - |
| 1777560194 | 25° C | 35% | 1014.2 hPa | - | - | - | - |
| 1777558993 | 22.22° C | 43% | 1014.4 hPa | - | - | - | - |
| 1777557792 | 21.67° C | 47% | 1014.4 hPa | - | - | - | - |
* Rain since midnight (hover to see other rain measurements)
** Current wind speed in m/s (hover to see current wind gust speed)